Terminal Aerodrome Forecast
Issued by NWS

Home | Current Version | Previous Version | Text Only | Print | Product List | Glossary On
Versions: 1 2 3 4 5 6 7 8 9 10 11 12 13 14 15 16 17 18
000
FTUS46 KEKA 290530
TAFCEC
TAF
KCEC 290530Z 2906/3006 35009KT P6SM FEW007 OVC015
     FM291000 02005KT 6SM BR BKN006 OVC010
     FM291800 35009KT P6SM SCT015
     FM292100 32013KT P6SM SKC=

USA.gov is the U.S. government's official web portal to all federal, state and local government web resources and services.